Time;durP1;ratioP1;P1;durP2;ratioP2;P2;SDS_P1;SDS_P2;PMS_P1;PMS_P2;Temp;Humidity;BMP_temperature;BMP_pressure;BME280_temperature;BME280_humidity;BME280_pressure;Samples;Min_cycle;Max_cycle;Signal;HPM_P1;HPM_P2
2022/12/18 00:00:29;;;;;;;90.93;29.63;;;;;;;;;;5033847;28;20334;-86
2022/12/18 00:02:55;;;;;;;101.83;32.23;;;;;;;;;;5032299;28;20504;-86
2022/12/18 00:05:20;;;;;;;98.93;31.33;;;;;;;;;;5032270;28;20028;-86
2022/12/18 00:07:45;;;;;;;95.23;29.40;;;;;;;;;;5032337;28;20431;-86
2022/12/18 00:10:10;;;;;;;82.73;27.73;;;;;;;;;;5020857;28;20021;-86
2022/12/18 00:12:36;;;;;;;78.90;26.40;;;;;;;;;;5033406;28;20036;-86
2022/12/18 00:15:01;;;;;;;85.20;28.80;;;;;;;;;;5031902;28;20022;-86
2022/12/18 00:17:26;;;;;;;90.70;28.70;;;;;;;;;;5031995;28;20017;-86
2022/12/18 00:19:51;;;;;;;84.87;29.37;;;;;;;;;;5033188;28;20109;-86
2022/12/18 00:22:17;;;;;;;96.30;29.47;;;;;;;;;;5027487;28;20413;-86
2022/12/18 00:24:42;;;;;;;94.43;30.87;;;;;;;;;;5032064;28;20021;-86
2022/12/18 00:27:07;;;;;;;105.37;31.93;;;;;;;;;;5031894;28;20021;-86
2022/12/18 00:29:32;;;;;;;106.43;32.73;;;;;;;;;;5033005;28;20049;-86
2022/12/18 00:31:57;;;;;;;96.80;30.20;;;;;;;;;;5031655;28;20025;-86
2022/12/18 00:34:23;;;;;;;91.23;31.07;;;;;;;;;;5031270;28;20029;-86
2022/12/18 00:36:48;;;;;;;92.53;28.77;;;;;;;;;;5033404;28;20028;-85
2022/12/18 00:39:13;;;;;;;77.20;24.70;;;;;;;;;;5031521;28;20079;-86
2022/12/18 00:44:23;;;;;;;89.23;26.67;;;;;;;;;;5032355;28;20201;-86
2022/12/18 00:46:48;;;;;;;82.80;27.97;;;;;;;;;;5031306;28;20532;-86
2022/12/18 00:49:14;;;;;;;72.00;23.50;;;;;;;;;;5031170;28;20350;-85
2022/12/18 00:51:39;;;;;;;81.23;25.93;;;;;;;;;;5031200;28;20393;-86
2022/12/18 00:54:04;;;;;;;76.23;24.00;;;;;;;;;;5029211;28;20480;-86
2022/12/18 00:56:30;;;;;;;73.67;23.77;;;;;;;;;;5030719;28;20477;-86
2022/12/18 00:58:55;;;;;;;84.67;26.57;;;;;;;;;;5031192;28;20018;-86
2022/12/18 01:01:21;;;;;;;74.93;25.57;;;;;;;;;;5030614;28;20418;-86
2022/12/18 01:03:46;;;;;;;81.30;25.60;;;;;;;;;;5030652;28;20029;-86
2022/12/18 01:06:12;;;;;;;93.00;30.97;;;;;;;;;;5032452;28;20045;-86
2022/12/18 01:08:38;;;;;;;90.10;30.33;;;;;;;;;;5030921;28;20075;-86
2022/12/18 01:11:08;;;;;;;84.43;26.83;;;;;;;;;;5031229;28;20025;-86
2022/12/18 01:13:33;;;;;;;80.57;25.73;;;;;;;;;;5030739;28;20027;-85
2022/12/18 01:15:58;;;;;;;83.63;25.63;;;;;;;;;;5030420;28;20469;-86
2022/12/18 01:18:24;;;;;;;77.63;25.73;;;;;;;;;;5032257;28;20091;-85
2022/12/18 01:20:49;;;;;;;82.87;25.83;;;;;;;;;;5030958;28;20095;-86
2022/12/18 01:23:14;;;;;;;89.47;26.43;;;;;;;;;;5031044;28;20021;-86
2022/12/18 01:25:39;;;;;;;78.63;25.13;;;;;;;;;;5030885;28;20033;-86
2022/12/18 01:28:04;;;;;;;82.13;25.67;;;;;;;;;;5028072;28;20040;-86
2022/12/18 01:30:30;;;;;;;83.33;24.80;;;;;;;;;;5030648;28;20018;-86
2022/12/18 01:32:55;;;;;;;83.40;25.10;;;;;;;;;;5030925;28;20045;-86
2022/12/18 01:35:20;;;;;;;72.50;22.57;;;;;;;;;;5030531;28;20060;-86
2022/12/18 01:37:45;;;;;;;75.57;25.53;;;;;;;;;;5030562;28;20013;-86
2022/12/18 01:40:10;;;;;;;68.33;23.43;;;;;;;;;;5024990;28;20092;-86
2022/12/18 01:42:36;;;;;;;75.83;21.97;;;;;;;;;;5030758;28;20453;-86
2022/12/18 01:45:13;;;;;;;73.07;22.43;;;;;;;;;;5030651;28;20064;-86
2022/12/18 01:47:46;;;;;;;63.33;20.83;;;;;;;;;;5047513;28;20480;-86
2022/12/18 01:50:16;;;;;;;66.53;22.53;;;;;;;;;;5030571;28;20014;-85
2022/12/18 01:52:43;;;;;;;73.07;24.67;;;;;;;;;;5030045;28;20025;-85
2022/12/18 01:55:09;;;;;;;64.60;22.83;;;;;;;;;;5030608;28;20025;-85
2022/12/18 01:57:35;;;;;;;71.67;22.83;;;;;;;;;;5030667;28;20029;-85
2022/12/18 02:00:02;;;;;;;67.40;23.20;;;;;;;;;;5030498;28;20136;-86
2022/12/18 02:02:30;;;;;;;78.37;25.43;;;;;;;;;;5031866;28;20025;-85
2022/12/18 02:04:55;;;;;;;74.07;24.20;;;;;;;;;;5031052;28;20022;-85
2022/12/18 02:07:25;;;;;;;68.10;21.60;;;;;;;;;;5030521;28;20354;-85
2022/12/18 02:10:04;;;;;;;73.93;23.07;;;;;;;;;;5030034;28;20473;-85
2022/12/18 02:12:48;;;;;;;69.40;22.87;;;;;;;;;;5026215;28;20026;-85
2022/12/18 02:15:19;;;;;;;68.23;23.33;;;;;;;;;;5033002;28;20014;-85
2022/12/18 02:17:44;;;;;;;69.17;22.93;;;;;;;;;;5034726;28;20029;-85
2022/12/18 02:20:24;;;;;;;65.63;21.40;;;;;;;;;;5050698;28;20496;-85
2022/12/18 02:23:08;;;;;;;60.77;20.70;;;;;;;;;;5033493;28;20034;-86
2022/12/18 02:25:33;;;;;;;65.90;21.67;;;;;;;;;;5034124;28;20030;-86
2022/12/18 02:28:00;;;;;;;62.47;21.50;;;;;;;;;;5050768;28;20037;-86
2022/12/18 02:30:26;;;;;;;70.83;23.57;;;;;;;;;;5033946;28;20071;-86
2022/12/18 02:32:52;;;;;;;61.93;21.30;;;;;;;;;;5035498;28;20055;-86
2022/12/18 02:35:21;;;;;;;58.23;21.87;;;;;;;;;;5034573;28;20025;-86
2022/12/18 02:37:46;;;;;;;61.57;22.30;;;;;;;;;;5033724;28;20118;-86
2022/12/18 02:40:13;;;;;;;69.53;20.80;;;;;;;;;;5033857;28;20068;-86
2022/12/18 02:42:38;;;;;;;61.90;20.80;;;;;;;;;;5033704;28;20033;-86
2022/12/18 02:45:03;;;;;;;67.83;20.97;;;;;;;;;;5030456;28;20470;-86
2022/12/18 02:47:31;;;;;;;55.53;20.23;;;;;;;;;;5030825;28;20033;-86
2022/12/18 02:50:05;;;;;;;57.43;18.90;;;;;;;;;;5033803;28;20434;-86
2022/12/18 02:52:36;;;;;;;66.60;19.57;;;;;;;;;;5035911;28;20029;-86
2022/12/18 02:55:07;;;;;;;67.03;22.33;;;;;;;;;;5029232;28;20014;-86
2022/12/18 02:57:56;;;;;;;65.63;21.53;;;;;;;;;;5027468;28;20018;-86
2022/12/18 03:00:28;;;;;;;68.23;21.43;;;;;;;;;;5045651;28;20041;-87
2022/12/18 03:02:57;;;;;;;58.10;18.83;;;;;;;;;;5032988;28;20025;-85
2022/12/18 03:05:24;;;;;;;60.43;21.43;;;;;;;;;;5033496;28;20036;-86
2022/12/18 03:07:55;;;;;;;57.47;21.00;;;;;;;;;;5033359;28;20028;-86
2022/12/18 03:10:24;;;;;;;61.63;19.53;;;;;;;;;;5033501;28;20124;-86
2022/12/18 03:12:52;;;;;;;90.40;27.37;;;;;;;;;;5031701;28;20033;-86
2022/12/18 03:15:28;;;;;;;70.50;24.27;;;;;;;;;;5033195;28;20045;-86
2022/12/18 03:17:59;;;;;;;70.30;23.00;;;;;;;;;;5032998;28;20408;-86
2022/12/18 03:20:25;;;;;;;72.27;25.83;;;;;;;;;;5034541;28;20358;-85
2022/12/18 03:22:52;;;;;;;62.00;21.93;;;;;;;;;;5032287;28;20045;-86
2022/12/18 03:25:18;;;;;;;62.97;21.33;;;;;;;;;;5032868;28;20474;-86
2022/12/18 03:27:47;;;;;;;75.53;24.07;;;;;;;;;;5034284;28;20125;-86
2022/12/18 03:30:15;;;;;;;76.63;27.63;;;;;;;;;;5033245;28;20022;-86
2022/12/18 03:32:49;;;;;;;84.10;27.80;;;;;;;;;;5034005;28;20025;-86
2022/12/18 03:35:18;;;;;;;74.57;24.17;;;;;;;;;;5033295;28;20056;-85
2022/12/18 03:37:43;;;;;;;66.13;23.60;;;;;;;;;;5032528;28;20373;-85
2022/12/18 03:40:09;;;;;;;53.90;20.80;;;;;;;;;;5032588;28;20026;-85
2022/12/18 03:42:34;;;;;;;58.33;19.80;;;;;;;;;;5032434;28;20116;-86
2022/12/18 03:44:59;;;;;;;60.93;22.23;;;;;;;;;;5029618;28;20026;-86
2022/12/18 03:47:24;;;;;;;66.63;22.27;;;;;;;;;;5044617;28;20107;-86
2022/12/18 03:49:55;;;;;;;55.83;19.90;;;;;;;;;;5049421;28;20045;-85
2022/12/18 03:52:25;;;;;;;52.67;18.73;;;;;;;;;;5047063;28;20125;-86
2022/12/18 03:54:51;;;;;;;45.90;17.30;;;;;;;;;;5014508;28;20022;-86
2022/12/18 03:57:18;;;;;;;49.70;17.27;;;;;;;;;;5031892;28;20412;-86
2022/12/18 03:59:45;;;;;;;46.10;16.40;;;;;;;;;;5033064;28;20017;-86
2022/12/18 04:02:10;;;;;;;48.23;17.63;;;;;;;;;;5032142;28;20068;-86
2022/12/18 04:04:37;;;;;;;49.40;16.57;;;;;;;;;;5032149;28;20021;-86
2022/12/18 04:07:03;;;;;;;49.87;17.00;;;;;;;;;;5031364;28;20108;-86
2022/12/18 04:09:29;;;;;;;57.73;20.03;;;;;;;;;;5032155;28;20484;-86
2022/12/18 04:11:55;;;;;;;55.37;19.17;;;;;;;;;;5033316;28;20057;-86
2022/12/18 04:14:20;;;;;;;63.47;19.83;;;;;;;;;;5031942;28;20032;-86
2022/12/18 04:16:45;;;;;;;58.33;18.57;;;;;;;;;;5031869;28;20021;-87
2022/12/18 04:19:10;;;;;;;46.07;17.13;;;;;;;;;;5029958;28;20445;-86
2022/12/18 04:21:35;;;;;;;46.30;17.07;;;;;;;;;;5032094;28;20052;-86
2022/12/18 04:24:01;;;;;;;44.20;15.40;;;;;;;;;;5031960;28;20096;-86
2022/12/18 04:26:26;;;;;;;49.07;15.07;;;;;;;;;;5031777;28;20164;-86
2022/12/18 04:28:51;;;;;;;46.20;15.53;;;;;;;;;;5031676;28;20013;-86
2022/12/18 04:31:16;;;;;;;49.47;17.10;;;;;;;;;;5031289;28;20025;-86
2022/12/18 04:33:41;;;;;;;50.50;16.83;;;;;;;;;;5031768;28;20071;-87
2022/12/18 04:36:07;;;;;;;49.30;16.77;;;;;;;;;;5030920;28;20028;-86
2022/12/18 04:38:32;;;;;;;49.97;15.10;;;;;;;;;;5032894;28;20010;-87
2022/12/18 04:40:57;;;;;;;61.27;18.17;;;;;;;;;;5030873;28;20033;-86
2022/12/18 04:43:23;;;;;;;56.87;17.20;;;;;;;;;;5031570;28;20453;-87
2022/12/18 04:45:48;;;;;;;49.43;16.37;;;;;;;;;;5031482;28;20499;-87
2022/12/18 04:48:13;;;;;;;50.10;17.83;;;;;;;;;;5031669;28;20095;-87
2022/12/18 04:50:38;;;;;;;55.30;17.77;;;;;;;;;;5031468;28;20388;-86
2022/12/18 04:53:04;;;;;;;45.60;17.30;;;;;;;;;;5030778;28;20025;-87
2022/12/18 04:55:29;;;;;;;49.53;16.90;;;;;;;;;;5031356;28;20385;-86
2022/12/18 04:57:54;;;;;;;55.93;18.17;;;;;;;;;;5031159;28;20025;-86
2022/12/18 05:00:19;;;;;;;58.67;20.03;;;;;;;;;;5031351;28;20175;-86
2022/12/18 05:02:44;;;;;;;61.07;19.70;;;;;;;;;;5031022;28;20053;-85
2022/12/18 05:05:10;;;;;;;68.13;18.53;;;;;;;;;;5030843;28;20032;-86
2022/12/18 05:07:35;;;;;;;57.20;17.57;;;;;;;;;;5032631;28;20377;-86
2022/12/18 05:10:00;;;;;;;56.10;18.63;;;;;;;;;;5032188;28;20013;-86
2022/12/18 05:12:25;;;;;;;58.87;17.90;;;;;;;;;;5031241;28;20124;-86
2022/12/18 05:14:51;;;;;;;50.50;17.17;;;;;;;;;;5031195;28;20018;-86
2022/12/18 05:17:16;;;;;;;45.27;16.37;;;;;;;;;;5030598;28;20124;-87
2022/12/18 05:19:41;;;;;;;56.70;18.40;;;;;;;;;;5031253;28;20024;-86
2022/12/18 05:22:06;;;;;;;57.80;20.37;;;;;;;;;;5031009;28;20056;-86
2022/12/18 05:24:32;;;;;;;50.47;16.17;;;;;;;;;;5031462;28;20048;-86
2022/12/18 05:26:57;;;;;;;46.80;16.53;;;;;;;;;;5032311;28;20028;-86
2022/12/18 05:29:22;;;;;;;53.50;17.93;;;;;;;;;;5030184;28;20516;-86
2022/12/18 05:31:47;;;;;;;49.97;17.47;;;;;;;;;;5032165;28;20028;-86
2022/12/18 05:34:12;;;;;;;51.57;17.43;;;;;;;;;;5031152;28;20048;-86
2022/12/18 05:36:37;;;;;;;44.77;14.97;;;;;;;;;;5030909;28;20096;-87
2022/12/18 05:39:03;;;;;;;50.77;17.73;;;;;;;;;;5030912;28;20100;-86
2022/12/18 05:41:28;;;;;;;43.40;15.93;;;;;;;;;;5030665;28;20048;-86
2022/12/18 05:43:54;;;;;;;44.23;15.10;;;;;;;;;;5032221;28;20018;-87
2022/12/18 05:46:19;;;;;;;51.30;17.47;;;;;;;;;;5030890;28;20457;-86
2022/12/18 05:48:44;;;;;;;52.10;19.47;;;;;;;;;;5035009;28;20021;-86
2022/12/18 05:51:12;;;;;;;70.73;21.53;;;;;;;;;;5034815;28;20025;-87
2022/12/18 05:53:37;;;;;;;87.67;23.93;;;;;;;;;;5034116;28;20120;-86
2022/12/18 05:56:03;;;;;;;73.20;21.30;;;;;;;;;;5034514;28;20377;-86
2022/12/18 05:58:29;;;;;;;66.17;20.27;;;;;;;;;;5035996;28;20022;-86
2022/12/18 06:00:54;;;;;;;62.53;20.63;;;;;;;;;;5034689;28;20163;-87
2022/12/18 06:03:19;;;;;;;68.57;20.73;;;;;;;;;;5034594;28;20366;-87
2022/12/18 06:05:45;;;;;;;64.47;21.50;;;;;;;;;;5034042;28;20071;-86
2022/12/18 06:08:11;;;;;;;68.43;20.30;;;;;;;;;;5034451;28;20036;-87
2022/12/18 06:10:37;;;;;;;61.93;18.63;;;;;;;;;;5034826;28;20025;-86
2022/12/18 06:13:02;;;;;;;49.37;16.93;;;;;;;;;;5035768;28;20026;-87
2022/12/18 06:15:27;;;;;;;50.10;17.97;;;;;;;;;;5035631;28;20021;-86
2022/12/18 06:17:52;;;;;;;47.17;17.60;;;;;;;;;;5033478;28;20465;-86
2022/12/18 06:20:17;;;;;;;50.30;19.20;;;;;;;;;;5034178;28;20029;-85
2022/12/18 06:22:43;;;;;;;49.30;17.73;;;;;;;;;;5034241;28;20030;-86
2022/12/18 06:25:08;;;;;;;43.27;16.30;;;;;;;;;;5034067;28;20033;-86
2022/12/18 06:27:34;;;;;;;49.70;17.00;;;;;;;;;;5034390;28;20121;-85
2022/12/18 06:30:00;;;;;;;43.00;16.80;;;;;;;;;;5033399;28;20060;-86
2022/12/18 06:32:25;;;;;;;51.90;16.73;;;;;;;;;;5033847;28;20032;-86
2022/12/18 06:34:50;;;;;;;40.27;14.07;;;;;;;;;;5034084;28;20029;-87
2022/12/18 06:37:16;;;;;;;43.53;15.70;;;;;;;;;;5035386;28;20472;-86
2022/12/18 06:39:41;;;;;;;42.30;15.63;;;;;;;;;;5033982;28;20021;-86
2022/12/18 06:42:06;;;;;;;45.13;14.60;;;;;;;;;;5033386;28;20108;-86
2022/12/18 06:44:31;;;;;;;38.03;13.67;;;;;;;;;;5033954;28;20071;-86
2022/12/18 06:46:56;;;;;;;48.00;16.00;;;;;;;;;;5033649;28;20025;-85
2022/12/18 06:49:22;;;;;;;39.60;14.77;;;;;;;;;;5033674;28;20108;-86
2022/12/18 06:51:47;;;;;;;45.70;14.57;;;;;;;;;;5033438;28;20029;-86
2022/12/18 06:54:12;;;;;;;34.10;13.73;;;;;;;;;;5032999;28;20052;-86
2022/12/18 06:56:37;;;;;;;35.67;12.93;;;;;;;;;;5033347;28;20025;-86
2022/12/18 06:59:03;;;;;;;36.57;14.03;;;;;;;;;;5032558;28;20048;-86
2022/12/18 07:01:28;;;;;;;38.20;12.03;;;;;;;;;;5032732;28;20032;-86
2022/12/18 07:03:54;;;;;;;38.13;12.43;;;;;;;;;;5033358;28;20040;-86
2022/12/18 07:06:20;;;;;;;36.50;12.90;;;;;;;;;;5032582;28;20026;-86
2022/12/18 07:08:46;;;;;;;35.87;13.33;;;;;;;;;;5033476;28;20021;-86
2022/12/18 07:11:11;;;;;;;34.07;13.43;;;;;;;;;;5032466;28;20540;-87
2022/12/18 07:13:37;;;;;;;37.27;13.17;;;;;;;;;;5033240;28;20028;-86
2022/12/18 07:16:05;;;;;;;33.90;12.97;;;;;;;;;;5033071;28;20204;-86
2022/12/18 07:18:30;;;;;;;33.33;13.30;;;;;;;;;;5049644;28;21036;-87
2022/12/18 07:20:56;;;;;;;31.07;13.40;;;;;;;;;;5033312;28;20022;-86
2022/12/18 07:23:21;;;;;;;36.03;12.57;;;;;;;;;;5033201;28;20025;-86
2022/12/18 07:25:46;;;;;;;38.00;13.13;;;;;;;;;;5033031;28;20022;-87
2022/12/18 07:28:12;;;;;;;41.17;14.93;;;;;;;;;;5032936;28;20495;-85
2022/12/18 07:30:38;;;;;;;39.93;14.33;;;;;;;;;;5032594;28;20045;-84
2022/12/18 07:33:03;;;;;;;51.67;17.77;;;;;;;;;;5032205;28;20361;-85
2022/12/18 07:35:28;;;;;;;48.30;17.57;;;;;;;;;;5032794;28;20017;-84
2022/12/18 07:37:53;;;;;;;52.73;17.83;;;;;;;;;;5032222;28;20370;-84
2022/12/18 07:40:18;;;;;;;57.63;19.83;;;;;;;;;;5032072;28;20056;-86
2022/12/18 07:42:44;;;;;;;55.67;19.57;;;;;;;;;;5032326;28;20112;-86
2022/12/18 07:45:09;;;;;;;42.13;15.23;;;;;;;;;;5029008;28;20026;-85
2022/12/18 07:47:35;;;;;;;36.10;13.57;;;;;;;;;;5031260;28;20018;-87
2022/12/18 07:50:01;;;;;;;35.13;12.43;;;;;;;;;;5032586;28;20021;-87
2022/12/18 07:52:26;;;;;;;31.70;12.20;;;;;;;;;;5033517;28;20017;-87
2022/12/18 07:54:51;;;;;;;32.67;11.63;;;;;;;;;;5029221;28;20021;-87
2022/12/18 07:57:17;;;;;;;35.53;13.70;;;;;;;;;;5047571;28;20048;-87
2022/12/18 07:59:42;;;;;;;35.87;12.67;;;;;;;;;;5030648;28;20040;-87
2022/12/18 08:02:07;;;;;;;36.20;14.27;;;;;;;;;;5030025;28;20488;-87
2022/12/18 08:04:32;;;;;;;38.17;13.37;;;;;;;;;;5032288;28;20061;-86
2022/12/18 08:06:58;;;;;;;32.77;12.60;;;;;;;;;;5023230;28;20044;-86
2022/12/18 08:09:23;;;;;;;37.50;13.40;;;;;;;;;;5032743;28;20075;-86
2022/12/18 08:11:48;;;;;;;39.73;14.03;;;;;;;;;;5025388;28;20482;-86
2022/12/18 08:14:14;;;;;;;35.67;14.47;;;;;;;;;;5023734;28;20022;-87
2022/12/18 08:16:39;;;;;;;42.47;15.10;;;;;;;;;;5031484;28;20465;-87
2022/12/18 08:19:05;;;;;;;40.50;15.33;;;;;;;;;;5031547;28;20029;-87
2022/12/18 08:21:30;;;;;;;42.43;16.20;;;;;;;;;;5017179;28;20030;-86
2022/12/18 08:23:57;;;;;;;35.07;15.27;;;;;;;;;;5024747;28;20469;-87
2022/12/18 08:26:23;;;;;;;39.03;15.07;;;;;;;;;;5017288;28;20053;-87
2022/12/18 08:28:49;;;;;;;40.03;15.27;;;;;;;;;;5031372;28;20018;-85
2022/12/18 08:31:14;;;;;;;44.13;16.50;;;;;;;;;;5026083;28;20482;-86
2022/12/18 08:33:40;;;;;;;44.40;16.37;;;;;;;;;;5029858;28;20028;-86
2022/12/18 08:36:06;;;;;;;31.27;12.50;;;;;;;;;;5032986;28;20017;-87
2022/12/18 08:38:31;;;;;;;28.97;10.53;;;;;;;;;;5031321;28;20028;-86
2022/12/18 08:41:00;;;;;;;33.17;11.20;;;;;;;;;;5031347;28;20483;-88
2022/12/18 08:46:10;;;;;;;30.30;11.33;;;;;;;;;;5026145;28;20146;-86
2022/12/18 08:48:35;;;;;;;25.67;11.17;;;;;;;;;;5015223;28;20065;-87
2022/12/18 08:51:01;;;;;;;30.03;11.00;;;;;;;;;;5032287;28;20017;-88
2022/12/18 08:53:26;;;;;;;31.53;10.70;;;;;;;;;;5023563;28;20032;-88
2022/12/18 08:55:52;;;;;;;26.80;10.50;;;;;;;;;;5028443;28;20697;-87
2022/12/18 08:58:17;;;;;;;27.83;10.97;;;;;;;;;;5033096;28;20018;-85
2022/12/18 09:00:43;;;;;;;31.83;11.70;;;;;;;;;;5027927;28;20017;-87
2022/12/18 09:03:14;;;;;;;36.10;11.60;;;;;;;;;;5017375;28;20396;-86
2022/12/18 09:05:40;;;;;;;26.33;10.60;;;;;;;;;;5027517;28;20022;-87
2022/12/18 09:08:05;;;;;;;31.73;11.20;;;;;;;;;;5030547;28;20629;-86
2022/12/18 09:10:30;;;;;;;32.70;12.17;;;;;;;;;;5030983;28;20096;-85
2022/12/18 09:12:56;;;;;;;30.33;11.47;;;;;;;;;;5030182;28;20053;-86
2022/12/18 09:15:21;;;;;;;27.27;10.43;;;;;;;;;;5029355;28;20025;-85
2022/12/18 09:17:47;;;;;;;27.37;11.83;;;;;;;;;;5029775;28;20132;-86
2022/12/18 09:20:13;;;;;;;32.03;12.53;;;;;;;;;;5029784;28;20072;-84
2022/12/18 09:22:38;;;;;;;30.03;12.07;;;;;;;;;;5032759;28;20377;-82
2022/12/18 09:25:07;;;;;;;37.30;13.10;;;;;;;;;;5028460;28;20487;-84
2022/12/18 09:27:32;;;;;;;37.93;13.07;;;;;;;;;;5037295;28;20028;-84
2022/12/18 09:29:57;;;;;;;36.43;12.33;;;;;;;;;;5028141;28;20052;-85
2022/12/18 09:32:23;;;;;;;33.60;12.27;;;;;;;;;;5040077;28;20053;-86
2022/12/18 09:34:48;;;;;;;31.30;11.70;;;;;;;;;;5027133;28;20074;-86
2022/12/18 09:37:13;;;;;;;27.30;11.07;;;;;;;;;;5038516;28;20026;-86
2022/12/18 09:39:38;;;;;;;25.17;10.17;;;;;;;;;;5021383;28;20465;-85
2022/12/18 09:42:04;;;;;;;28.77;10.30;;;;;;;;;;5027867;28;20024;-85
2022/12/18 09:44:29;;;;;;;26.73;10.37;;;;;;;;;;5022945;28;20116;-87
2022/12/18 09:46:54;;;;;;;31.47;11.50;;;;;;;;;;5030479;28;20035;-87
2022/12/18 09:49:21;;;;;;;31.57;11.00;;;;;;;;;;5030488;28;20091;-87
2022/12/18 09:51:49;;;;;;;37.50;13.70;;;;;;;;;;5025350;28;20095;-87
2022/12/18 09:54:18;;;;;;;32.83;12.93;;;;;;;;;;5029168;28;20102;-85
2022/12/18 09:56:43;;;;;;;34.43;12.80;;;;;;;;;;5030625;28;20063;-86
2022/12/18 09:59:18;;;;;;;31.17;11.93;;;;;;;;;;5031662;28;20017;-86
2022/12/18 10:01:43;;;;;;;36.70;12.50;;;;;;;;;;5031888;28;20009;-86
2022/12/18 10:04:09;;;;;;;36.63;13.13;;;;;;;;;;5032188;28;20024;-86
2022/12/18 10:06:41;;;;;;;33.03;12.47;;;;;;;;;;5026066;28;20022;-86
2022/12/18 10:09:15;;;;;;;34.88;13.65;;;;;;;;;;5034797;28;20369;-86
2022/12/18 10:11:46;;;;;;;40.47;13.27;;;;;;;;;;5029884;28;20040;-86
2022/12/18 10:14:21;;;;;;;28.27;10.97;;;;;;;;;;5029331;28;20453;-86
2022/12/18 10:16:50;;;;;;;25.03;10.57;;;;;;;;;;5026419;28;20041;-86
2022/12/18 10:19:34;;;;;;;29.73;11.67;;;;;;;;;;5037235;28;20064;-86
2022/12/18 10:22:10;;;;;;;28.37;10.93;;;;;;;;;;5046702;28;20013;-86
2022/12/18 10:24:35;;;;;;;31.60;10.10;;;;;;;;;;5030777;28;20060;-86
2022/12/18 10:27:30;;;;;;;28.70;10.97;;;;;;;;;;5045584;28;20117;-86
2022/12/18 10:29:55;;;;;;;24.67;8.90;;;;;;;;;;5035307;28;20084;-87
2022/12/18 10:32:30;;;;;;;27.63;10.57;;;;;;;;;;5046995;28;20393;-86
2022/12/18 10:34:57;;;;;;;29.40;9.80;;;;;;;;;;5028380;28;20022;-86
2022/12/18 10:37:25;;;;;;;27.43;10.27;;;;;;;;;;5049271;28;20457;-87
2022/12/18 10:40:09;;;;;;;22.33;10.30;;;;;;;;;;5032780;28;20109;-85
2022/12/18 10:42:35;;;;;;;21.83;9.53;;;;;;;;;;5030564;28;20461;-87
2022/12/18 10:45:05;;;;;;;18.27;8.10;;;;;;;;;;5050562;28;20018;-87
2022/12/18 10:47:32;;;;;;;26.07;10.10;;;;;;;;;;5050578;28;20044;-87
2022/12/18 10:49:57;;;;;;;23.43;10.13;;;;;;;;;;5033905;28;20470;-87
2022/12/18 10:52:24;;;;;;;26.30;11.40;;;;;;;;;;5033012;28;20041;-86
2022/12/18 10:54:51;;;;;;;27.90;11.17;;;;;;;;;;5035247;28;20021;-87
2022/12/18 10:57:26;;;;;;;24.60;10.00;;;;;;;;;;5033186;28;20116;-87
2022/12/18 10:59:55;;;;;;;26.83;10.60;;;;;;;;;;5053345;28;20033;-87
2022/12/18 11:02:26;;;;;;;23.20;10.73;;;;;;;;;;5025043;28;20026;-87
2022/12/18 11:04:51;;;;;;;26.37;11.13;;;;;;;;;;5030733;28;20025;-87
2022/12/18 11:07:17;;;;;;;34.13;11.87;;;;;;;;;;5033470;28;20131;-87
2022/12/18 11:09:42;;;;;;;29.77;12.27;;;;;;;;;;5033575;28;20021;-87
2022/12/18 11:12:10;;;;;;;33.23;12.73;;;;;;;;;;5033414;28;20032;-87
2022/12/18 11:14:51;;;;;;;31.57;12.30;;;;;;;;;;5048185;28;20017;-87
2022/12/18 11:17:35;;;;;;;33.27;11.80;;;;;;;;;;5040532;28;20056;-87
2022/12/18 11:20:06;;;;;;;28.87;11.43;;;;;;;;;;5034499;28;20064;-87
2022/12/18 11:22:33;;;;;;;26.90;10.23;;;;;;;;;;5033507;28;20017;-87
2022/12/18 11:25:00;;;;;;;23.93;9.83;;;;;;;;;;5032508;28;20025;-87
2022/12/18 11:27:25;;;;;;;21.30;9.50;;;;;;;;;;5033482;28;20029;-87
2022/12/18 11:29:54;;;;;;;28.63;10.40;;;;;;;;;;5049813;28;20469;-87
2022/12/18 11:32:29;;;;;;;24.47;10.13;;;;;;;;;;5033222;28;20033;-87
2022/12/18 11:35:00;;;;;;;27.33;9.70;;;;;;;;;;5033392;28;20028;-87
2022/12/18 11:37:26;;;;;;;28.60;11.00;;;;;;;;;;5049824;28;20064;-88
2022/12/18 11:40:01;;;;;;;23.87;9.83;;;;;;;;;;5032926;28;20483;-87
2022/12/18 11:42:35;;;;;;;28.17;10.67;;;;;;;;;;5025373;28;20035;-88
2022/12/18 11:45:08;;;;;;;28.67;10.67;;;;;;;;;;5049479;28;20432;-88
2022/12/18 11:47:51;;;;;;;26.83;10.67;;;;;;;;;;5049613;28;20029;-88
2022/12/18 11:50:23;;;;;;;28.23;11.10;;;;;;;;;;5031358;28;20021;-87
2022/12/18 11:52:48;;;;;;;24.80;9.95;;;;;;;;;;5029701;28;20026;-88
2022/12/18 11:55:15;;;;;;;24.83;11.40;;;;;;;;;;5041698;28;20021;-88
2022/12/18 11:57:45;;;;;;;29.77;11.70;;;;;;;;;;5032848;28;20437;-88
2022/12/18 12:00:15;;;;;;;27.03;11.50;;;;;;;;;;5032126;28;20025;-88
2022/12/18 12:02:48;;;;;;;29.70;12.13;;;;;;;;;;5027617;28;20029;-87
2022/12/18 12:05:20;;;;;;;30.80;11.23;;;;;;;;;;5034697;28;20024;-89
2022/12/18 12:07:55;;;;;;;29.80;12.77;;;;;;;;;;5032823;28;20333;-88
2022/12/18 12:10:26;;;;;;;32.00;12.00;;;;;;;;;;5049583;28;20021;-88
2022/12/18 12:12:57;;;;;;;31.73;12.27;;;;;;;;;;5032991;28;20029;-89
2022/12/18 12:15:36;;;;;;;33.87;14.23;;;;;;;;;;5049335;28;21667;-89
2022/12/18 12:18:13;;;;;;;29.53;12.87;;;;;;;;;;5032065;28;20025;-88
2022/12/18 12:20:38;;;;;;;30.87;13.03;;;;;;;;;;5036674;28;20552;-88
2022/12/18 12:23:12;;;;;;;31.13;13.37;;;;;;;;;;5049371;28;20041;-88
2022/12/18 12:25:41;;;;;;;28.37;12.83;;;;;;;;;;5038898;28;20162;-88
2022/12/18 12:28:19;;;;;;;29.43;11.83;;;;;;;;;;5030736;28;20116;-87
2022/12/18 12:31:03;;;;;;;32.37;11.37;;;;;;;;;;5015426;28;20109;-89
2022/12/18 12:33:43;;;;;;;28.27;12.60;;;;;;;;;;5047563;28;20060;-89
2022/12/18 12:36:14;;;;;;;35.40;13.37;;;;;;;;;;5031306;28;20168;-89
2022/12/18 12:38:50;;;;;;;25.73;10.93;;;;;;;;;;5029301;28;20022;-90
2022/12/18 12:44:03;;;;;;;27.07;10.77;;;;;;;;;;5039125;28;20067;-90
2022/12/18 12:46:30;;;;;;;23.57;9.97;;;;;;;;;;5041130;28;20044;-90
2022/12/18 12:48:56;;;;;;;24.50;10.00;;;;;;;;;;5029877;28;20029;-88
2022/12/18 12:51:35;;;;;;;23.43;10.47;;;;;;;;;;5031618;28;20053;-89
2022/12/18 12:54:02;;;;;;;25.43;10.97;;;;;;;;;;5031052;28;20013;-91
2022/12/18 12:56:35;;;;;;;29.20;11.60;;;;;;;;;;5030040;28;20112;-89
2022/12/18 12:59:11;;;;;;;29.20;11.10;;;;;;;;;;5043995;28;20028;-91
2022/12/18 13:01:36;;;;;;;23.87;10.17;;;;;;;;;;5027144;28;20021;-89
2022/12/18 13:04:20;;;;;;;24.23;10.03;;;;;;;;;;5045520;28;20021;-90
2022/12/18 13:06:45;;;;;;;25.40;10.10;;;;;;;;;;5031361;28;20083;-89
2022/12/18 13:09:11;;;;;;;27.27;10.00;;;;;;;;;;5032027;28;20337;-85
2022/12/18 13:14:27;;;;;;;30.57;12.10;;;;;;;;;;5024837;28;20029;-90
2022/12/18 13:17:15;;;;;;;28.90;11.37;;;;;;;;;;5030427;28;20029;-88
2022/12/18 13:19:40;;;;;;;31.30;11.60;;;;;;;;;;5024795;28;20083;-84
2022/12/18 13:22:23;;;;;;;26.87;11.37;;;;;;;;;;5016390;28;20125;-86
2022/12/18 13:24:48;;;;;;;24.30;10.90;;;;;;;;;;5021393;28;20516;-85
2022/12/18 13:27:52;;;;;;;26.33;11.40;;;;;;;;;;5029320;28;20041;-86
2022/12/18 13:30:32;;;;;;;28.77;11.40;;;;;;;;;;5032720;28;20030;-86
2022/12/18 13:33:13;;;;;;;46.57;16.37;;;;;;;;;;5033250;28;20050;-85
2022/12/18 13:35:38;;;;;;;55.43;18.47;;;;;;;;;;5044349;28;20717;-85
2022/12/18 13:38:20;;;;;;;49.77;19.03;;;;;;;;;;5033463;28;20021;-87
2022/12/18 13:40:48;;;;;;;40.78;15.05;;;;;;;;;;5033553;28;20492;-91
2022/12/18 13:43:19;;;;;;;35.20;13.47;;;;;;;;;;5037278;28;20037;-87
2022/12/18 13:45:47;;;;;;;32.63;12.93;;;;;;;;;;5045065;28;20388;-89
2022/12/18 13:48:32;;;;;;;24.87;11.73;;;;;;;;;;5023659;28;20048;-88
2022/12/18 13:51:06;;;;;;;32.20;12.87;;;;;;;;;;5029763;28;20025;-87
2022/12/18 13:53:37;;;;;;;26.50;12.67;;;;;;;;;;5027506;28;20397;-88
2022/12/18 13:56:03;;;;;;;31.48;13.55;;;;;;;;;;5029162;28;20120;-86
2022/12/18 13:58:28;;;;;;;29.13;13.63;;;;;;;;;;5025455;28;20595;-86
2022/12/18 14:00:53;;;;;;;35.07;13.70;;;;;;;;;;5031337;28;20080;-84
2022/12/18 14:03:27;;;;;;;26.83;11.60;;;;;;;;;;5027968;28;20101;-84
2022/12/18 14:05:53;;;;;;;28.43;12.03;;;;;;;;;;5043748;28;20477;-84
2022/12/18 14:08:20;;;;;;;25.57;12.07;;;;;;;;;;5028552;28;20021;-83
2022/12/18 14:10:46;;;;;;;31.90;13.90;;;;;;;;;;5032959;28;20060;-85
2022/12/18 14:13:17;;;;;;;32.50;13.87;;;;;;;;;;5032944;28;20021;-86
2022/12/18 14:15:44;;;;;;;39.60;15.40;;;;;;;;;;5032548;28;20104;-86
2022/12/18 14:18:17;;;;;;;36.47;15.53;;;;;;;;;;5026505;28;20088;-86
2022/12/18 14:20:46;;;;;;;31.53;12.97;;;;;;;;;;5033075;28;20022;-86
2022/12/18 14:23:32;;;;;;;30.93;14.23;;;;;;;;;;5032563;28;20030;-86
2022/12/18 14:25:57;;;;;;;32.17;12.03;;;;;;;;;;5027140;28;20053;-85
2022/12/18 14:28:22;;;;;;;32.00;12.20;;;;;;;;;;5037807;28;20068;-86
2022/12/18 14:30:48;;;;;;;29.23;11.93;;;;;;;;;;5033959;28;20026;-90